sensor_id;sensor_type;location;lat;lon;timestamp;temperature;humidity
6052;DHT22;3054;51.204;4.430;2022-08-19T00:00:35;23.99;65.03
6052;DHT22;3054;51.204;4.430;2022-08-19T00:03:02;23.94;65.27
6052;DHT22;3054;51.204;4.430;2022-08-19T00:05:31;23.92;65.46
6052;DHT22;3054;51.204;4.430;2022-08-19T00:07:58;23.89;65.63
6052;DHT22;3054;51.204;4.430;2022-08-19T00:10:24;23.88;65.85
6052;DHT22;3054;51.204;4.430;2022-08-19T00:12:52;23.85;66.04
6052;DHT22;3054;51.204;4.430;2022-08-19T00:15:21;23.86;66.24
6052;DHT22;3054;51.204;4.430;2022-08-19T00:17:48;23.85;66.39
6052;DHT22;3054;51.204;4.430;2022-08-19T00:20:17;23.83;66.59
6052;DHT22;3054;51.204;4.430;2022-08-19T00:22:45;23.81;66.76
6052;DHT22;3054;51.204;4.430;2022-08-19T00:25:14;23.77;66.97
6052;DHT22;3054;51.204;4.430;2022-08-19T00:28:01;23.76;67.20
6052;DHT22;3054;51.204;4.430;2022-08-19T00:30:28;23.75;67.24
6052;DHT22;3054;51.204;4.430;2022-08-19T00:32:55;23.73;67.46
6052;DHT22;3054;51.204;4.430;2022-08-19T00:35:22;23.72;67.59
6052;DHT22;3054;51.204;4.430;2022-08-19T00:37:52;23.70;67.81
6052;DHT22;3054;51.204;4.430;2022-08-19T00:40:20;23.70;67.92
6052;DHT22;3054;51.204;4.430;2022-08-19T00:42:48;23.71;68.04
6052;DHT22;3054;51.204;4.430;2022-08-19T00:45:26;23.68;68.17
6052;DHT22;3054;51.204;4.430;2022-08-19T00:47:57;23.68;68.24
6052;DHT22;3054;51.204;4.430;2022-08-19T00:50:24;23.67;68.33
6052;DHT22;3054;51.204;4.430;2022-08-19T00:52:52;23.61;68.56
6052;DHT22;3054;51.204;4.430;2022-08-19T00:55:22;23.60;68.64
6052;DHT22;3054;51.204;4.430;2022-08-19T00:57:54;23.56;68.81
6052;DHT22;3054;51.204;4.430;2022-08-19T01:00:24;23.54;68.90
6052;DHT22;3054;51.204;4.430;2022-08-19T01:02:52;23.52;69.08
6052;DHT22;3054;51.204;4.430;2022-08-19T01:05:22;23.50;69.13
6052;DHT22;3054;51.204;4.430;2022-08-19T01:07:51;23.47;69.25
6052;DHT22;3054;51.204;4.430;2022-08-19T01:10:23;23.44;69.39
6052;DHT22;3054;51.204;4.430;2022-08-19T01:12:51;23.41;69.48
6052;DHT22;3054;51.204;4.430;2022-08-19T01:15:21;23.38;69.62
6052;DHT22;3054;51.204;4.430;2022-08-19T01:17:50;23.36;69.71
6052;DHT22;3054;51.204;4.430;2022-08-19T01:20:21;23.34;69.84
6052;DHT22;3054;51.204;4.430;2022-08-19T01:22:52;23.34;69.83
6052;DHT22;3054;51.204;4.430;2022-08-19T01:25:22;23.32;69.90
6052;DHT22;3054;51.204;4.430;2022-08-19T01:27:51;23.31;69.95
6052;DHT22;3054;51.204;4.430;2022-08-19T01:30:21;23.30;70.00
6052;DHT22;3054;51.204;4.430;2022-08-19T01:32:49;23.31;69.95
6052;DHT22;3054;51.204;4.430;2022-08-19T01:35:19;23.27;70.02
6052;DHT22;3054;51.204;4.430;2022-08-19T01:37:50;23.27;70.09
6052;DHT22;3054;51.204;4.430;2022-08-19T01:40:20;23.25;70.07
6052;DHT22;3054;51.204;4.430;2022-08-19T01:42:47;23.25;70.07
6052;DHT22;3054;51.204;4.430;2022-08-19T01:45:14;23.23;70.05
6052;DHT22;3054;51.204;4.430;2022-08-19T01:47:41;23.23;69.96
6052;DHT22;3054;51.204;4.430;2022-08-19T01:50:11;23.25;69.75
6052;DHT22;3054;51.204;4.430;2022-08-19T01:52:39;23.22;69.67
6052;DHT22;3054;51.204;4.430;2022-08-19T01:55:12;23.18;69.50
6052;DHT22;3054;51.204;4.430;2022-08-19T01:57:41;23.17;69.40
6052;DHT22;3054;51.204;4.430;2022-08-19T02:00:12;23.16;69.26
6052;DHT22;3054;51.204;4.430;2022-08-19T02:02:39;23.12;69.18
6052;DHT22;3054;51.204;4.430;2022-08-19T02:05:06;23.13;69.04
6052;DHT22;3054;51.204;4.430;2022-08-19T02:07:33;23.11;68.98
6052;DHT22;3054;51.204;4.430;2022-08-19T02:10:02;23.07;68.95
6052;DHT22;3054;51.204;4.430;2022-08-19T02:12:31;23.07;68.85
6052;DHT22;3054;51.204;4.430;2022-08-19T02:14:58;23.01;68.90
6052;DHT22;3054;51.204;4.430;2022-08-19T02:17:26;23.00;68.85
6052;DHT22;3054;51.204;4.430;2022-08-19T02:19:54;22.98;68.84
6052;DHT22;3054;51.204;4.430;2022-08-19T02:22:22;22.96;68.84
6052;DHT22;3054;51.204;4.430;2022-08-19T02:24:50;22.91;68.86
6052;DHT22;3054;51.204;4.430;2022-08-19T02:27:17;22.90;68.94
6052;DHT22;3054;51.204;4.430;2022-08-19T02:29:48;22.87;68.97
6052;DHT22;3054;51.204;4.430;2022-08-19T02:32:15;22.86;68.97
6052;DHT22;3054;51.204;4.430;2022-08-19T02:34:42;22.85;68.98
6052;DHT22;3054;51.204;4.430;2022-08-19T02:37:09;22.83;69.07
6052;DHT22;3054;51.204;4.430;2022-08-19T02:39:56;22.80;69.05
6052;DHT22;3054;51.204;4.430;2022-08-19T02:42:22;22.79;69.07
6052;DHT22;3054;51.204;4.430;2022-08-19T02:44:51;22.76;69.14
6052;DHT22;3054;51.204;4.430;2022-08-19T02:47:18;22.77;69.10
6052;DHT22;3054;51.204;4.430;2022-08-19T02:49:45;22.76;69.21
6052;DHT22;3054;51.204;4.430;2022-08-19T02:52:15;22.72;69.23
6052;DHT22;3054;51.204;4.430;2022-08-19T02:54:42;22.67;69.36
6052;DHT22;3054;51.204;4.430;2022-08-19T02:57:10;22.57;69.51
6052;DHT22;3054;51.204;4.430;2022-08-19T02:59:36;22.50;69.73
6052;DHT22;3054;51.204;4.430;2022-08-19T03:02:05;22.49;69.94
6052;DHT22;3054;51.204;4.430;2022-08-19T03:04:31;22.50;70.00
6052;DHT22;3054;51.204;4.430;2022-08-19T03:06:58;22.48;70.11
6052;DHT22;3054;51.204;4.430;2022-08-19T03:09:25;22.51;70.10
6052;DHT22;3054;51.204;4.430;2022-08-19T03:11:52;22.49;70.17
6052;DHT22;3054;51.204;4.430;2022-08-19T03:14:19;22.48;70.15
6052;DHT22;3054;51.204;4.430;2022-08-19T03:16:47;22.47;70.19
6052;DHT22;3054;51.204;4.430;2022-08-19T03:19:18;22.47;70.17
6052;DHT22;3054;51.204;4.430;2022-08-19T03:21:46;22.47;70.20
6052;DHT22;3054;51.204;4.430;2022-08-19T03:24:14;22.42;70.26
6052;DHT22;3054;51.204;4.430;2022-08-19T03:26:45;22.41;70.31
6052;DHT22;3054;51.204;4.430;2022-08-19T03:29:14;22.40;70.32
6052;DHT22;3054;51.204;4.430;2022-08-19T03:31:42;22.39;70.32
6052;DHT22;3054;51.204;4.430;2022-08-19T03:34:10;22.36;70.38
6052;DHT22;3054;51.204;4.430;2022-08-19T03:36:39;22.37;70.39
6052;DHT22;3054;51.204;4.430;2022-08-19T03:39:06;22.33;70.45
6052;DHT22;3054;51.204;4.430;2022-08-19T03:41:37;22.31;70.54
6052;DHT22;3054;51.204;4.430;2022-08-19T03:44:04;22.27;70.58
6052;DHT22;3054;51.204;4.430;2022-08-19T03:46:33;22.24;70.62
6052;DHT22;3054;51.204;4.430;2022-08-19T03:49:01;22.21;70.71
6052;DHT22;3054;51.204;4.430;2022-08-19T03:51:32;22.21;70.75
6052;DHT22;3054;51.204;4.430;2022-08-19T03:54:03;22.19;70.77
6052;DHT22;3054;51.204;4.430;2022-08-19T03:56:33;22.19;70.74
6052;DHT22;3054;51.204;4.430;2022-08-19T03:59:00;22.14;70.81
6052;DHT22;3054;51.204;4.430;2022-08-19T04:01:30;22.14;70.81
6052;DHT22;3054;51.204;4.430;2022-08-19T04:03:58;22.14;70.86
6052;DHT22;3054;51.204;4.430;2022-08-19T04:06:29;22.11;70.87
6052;DHT22;3054;51.204;4.430;2022-08-19T04:08:58;22.07;70.98
6052;DHT22;3054;51.204;4.430;2022-08-19T04:11:31;22.05;71.06
6052;DHT22;3054;51.204;4.430;2022-08-19T04:13:58;22.05;71.10
6052;DHT22;3054;51.204;4.430;2022-08-19T04:16:27;22.05;71.10
6052;DHT22;3054;51.204;4.430;2022-08-19T04:18:55;22.04;71.16
6052;DHT22;3054;51.204;4.430;2022-08-19T04:21:24;22.04;71.16
6052;DHT22;3054;51.204;4.430;2022-08-19T04:23:52;22.03;71.19
6052;DHT22;3054;51.204;4.430;2022-08-19T04:26:21;22.01;71.26
6052;DHT22;3054;51.204;4.430;2022-08-19T04:28:50;21.98;71.33
6052;DHT22;3054;51.204;4.430;2022-08-19T04:31:20;21.98;71.35
6052;DHT22;3054;51.204;4.430;2022-08-19T04:33:48;21.93;71.48
6052;DHT22;3054;51.204;4.430;2022-08-19T04:36:19;21.90;71.58
6052;DHT22;3054;51.204;4.430;2022-08-19T04:38:47;21.87;71.59
6052;DHT22;3054;51.204;4.430;2022-08-19T04:41:14;21.85;71.69
6052;DHT22;3054;51.204;4.430;2022-08-19T04:44:00;21.83;71.82
6052;DHT22;3054;51.204;4.430;2022-08-19T04:46:29;21.85;71.80
6052;DHT22;3054;51.204;4.430;2022-08-19T04:48:57;21.84;71.88
6052;DHT22;3054;51.204;4.430;2022-08-19T04:51:25;21.84;71.87
6052;DHT22;3054;51.204;4.430;2022-08-19T04:53:52;21.84;71.87
6052;DHT22;3054;51.204;4.430;2022-08-19T04:56:20;21.85;71.88
6052;DHT22;3054;51.204;4.430;2022-08-19T04:58:48;21.83;71.94
6052;DHT22;3054;51.204;4.430;2022-08-19T05:01:20;21.84;71.96
6052;DHT22;3054;51.204;4.430;2022-08-19T05:03:49;21.87;71.87
6052;DHT22;3054;51.204;4.430;2022-08-19T05:06:18;21.85;71.96
6052;DHT22;3054;51.204;4.430;2022-08-19T05:08:45;21.85;71.96
6052;DHT22;3054;51.204;4.430;2022-08-19T05:11:14;21.84;72.05
6052;DHT22;3054;51.204;4.430;2022-08-19T05:13:42;21.84;72.05
6052;DHT22;3054;51.204;4.430;2022-08-19T05:16:10;21.83;72.01
6052;DHT22;3054;51.204;4.430;2022-08-19T05:18:39;21.79;72.12
6052;DHT22;3054;51.204;4.430;2022-08-19T05:21:25;21.79;72.13
6052;DHT22;3054;51.204;4.430;2022-08-19T05:24:11;21.80;72.14
6052;DHT22;3054;51.204;4.430;2022-08-19T05:26:41;21.78;72.19
6052;DHT22;3054;51.204;4.430;2022-08-19T05:29:12;21.81;72.29
6052;DHT22;3054;51.204;4.430;2022-08-19T05:31:39;21.89;72.14
6052;DHT22;3054;51.204;4.430;2022-08-19T05:34:08;21.87;72.13
6052;DHT22;3054;51.204;4.430;2022-08-19T05:36:38;21.88;72.13
6052;DHT22;3054;51.204;4.430;2022-08-19T05:39:06;21.91;72.08
6052;DHT22;3054;51.204;4.430;2022-08-19T05:41:34;21.92;72.11
6052;DHT22;3054;51.204;4.430;2022-08-19T05:44:04;21.96;72.06
6052;DHT22;3054;51.204;4.430;2022-08-19T05:46:35;21.92;72.14
6052;DHT22;3054;51.204;4.430;2022-08-19T05:49:02;21.97;72.14
6052;DHT22;3054;51.204;4.430;2022-08-19T05:51:32;21.98;72.06
6052;DHT22;3054;51.204;4.430;2022-08-19T05:53:59;22.08;71.96
6052;DHT22;3054;51.204;4.430;2022-08-19T05:56:26;22.20;71.74
6052;DHT22;3054;51.204;4.430;2022-08-19T05:58:53;22.22;71.58
6052;DHT22;3054;51.204;4.430;2022-08-19T06:01:20;22.27;71.58
6052;DHT22;3054;51.204;4.430;2022-08-19T06:03:48;22.34;71.49
6052;DHT22;3054;51.204;4.430;2022-08-19T06:06:15;22.49;71.12
6052;DHT22;3054;51.204;4.430;2022-08-19T06:08:43;22.50;71.11
6052;DHT22;3054;51.204;4.430;2022-08-19T06:11:19;22.55;71.13
6052;DHT22;3054;51.204;4.430;2022-08-19T06:13:49;22.68;70.99
6052;DHT22;3054;51.204;4.430;2022-08-19T06:16:18;22.70;71.00
6052;DHT22;3054;51.204;4.430;2022-08-19T06:18:49;22.71;71.07
6052;DHT22;3054;51.204;4.430;2022-08-19T06:21:18;22.71;71.16
6052;DHT22;3054;51.204;4.430;2022-08-19T06:23:47;22.73;71.13
6052;DHT22;3054;51.204;4.430;2022-08-19T06:26:15;22.71;71.17
6052;DHT22;3054;51.204;4.430;2022-08-19T06:28:42;22.65;71.16
6052;DHT22;3054;51.204;4.430;2022-08-19T06:31:12;22.62;71.13
6052;DHT22;3054;51.204;4.430;2022-08-19T06:33:40;22.57;71.32
6052;DHT22;3054;51.204;4.430;2022-08-19T06:36:08;22.50;71.48
6052;DHT22;3054;51.204;4.430;2022-08-19T06:38:42;22.49;71.48
6052;DHT22;3054;51.204;4.430;2022-08-19T06:41:10;22.48;71.60
6052;DHT22;3054;51.204;4.430;2022-08-19T06:43:37;22.48;71.69
6052;DHT22;3054;51.204;4.430;2022-08-19T06:46:10;22.48;71.80
6052;DHT22;3054;51.204;4.430;2022-08-19T06:48:38;22.49;71.76
6052;DHT22;3054;51.204;4.430;2022-08-19T06:51:05;22.57;71.70
6052;DHT22;3054;51.204;4.430;2022-08-19T06:53:32;22.57;71.72
6052;DHT22;3054;51.204;4.430;2022-08-19T06:55:59;22.56;71.77
6052;DHT22;3054;51.204;4.430;2022-08-19T06:58:29;22.54;71.86
6052;DHT22;3054;51.204;4.430;2022-08-19T07:00:59;22.57;71.84
6052;DHT22;3054;51.204;4.430;2022-08-19T07:03:29;22.65;71.81
6052;DHT22;3054;51.204;4.430;2022-08-19T07:05:57;22.72;71.58
6052;DHT22;3054;51.204;4.430;2022-08-19T07:08:24;22.88;71.29
6052;DHT22;3054;51.204;4.430;2022-08-19T07:10:52;22.96;71.10
6052;DHT22;3054;51.204;4.430;2022-08-19T07:13:21;23.06;70.97
6052;DHT22;3054;51.204;4.430;2022-08-19T07:15:50;23.17;70.88
6052;DHT22;3054;51.204;4.430;2022-08-19T07:18:18;23.18;70.86
6052;DHT22;3054;51.204;4.430;2022-08-19T07:20:46;23.13;71.06
6052;DHT22;3054;51.204;4.430;2022-08-19T07:23:13;23.13;71.31
6052;DHT22;3054;51.204;4.430;2022-08-19T07:25:40;23.17;71.32
6052;DHT22;3054;51.204;4.430;2022-08-19T07:28:08;23.17;71.35
6052;DHT22;3054;51.204;4.430;2022-08-19T07:30:37;23.16;71.45
6052;DHT22;3054;51.204;4.430;2022-08-19T07:33:05;23.18;71.35
6052;DHT22;3054;51.204;4.430;2022-08-19T07:35:31;23.20;71.45
6052;DHT22;3054;51.204;4.430;2022-08-19T07:37:59;23.23;71.37
6052;DHT22;3054;51.204;4.430;2022-08-19T07:40:28;23.27;71.37
6052;DHT22;3054;51.204;4.430;2022-08-19T07:42:55;23.30;71.34
6052;DHT22;3054;51.204;4.430;2022-08-19T07:45:22;23.30;71.46
6052;DHT22;3054;51.204;4.430;2022-08-19T07:47:49;23.32;71.44
6052;DHT22;3054;51.204;4.430;2022-08-19T07:50:18;23.40;71.47
6052;DHT22;3054;51.204;4.430;2022-08-19T07:52:46;23.39;71.58
6052;DHT22;3054;51.204;4.430;2022-08-19T07:55:15;23.49;71.57
6052;DHT22;3054;51.204;4.430;2022-08-19T07:57:43;23.60;71.26
6052;DHT22;3054;51.204;4.430;2022-08-19T08:00:10;23.65;71.30
6052;DHT22;3054;51.204;4.430;2022-08-19T08:02:37;23.70;71.17
6052;DHT22;3054;51.204;4.430;2022-08-19T08:05:08;23.72;71.21
6052;DHT22;3054;51.204;4.430;2022-08-19T08:07:54;23.81;71.10
6052;DHT22;3054;51.204;4.430;2022-08-19T08:10:39;23.89;70.82
6052;DHT22;3054;51.204;4.430;2022-08-19T08:13:06;23.88;70.82
6052;DHT22;3054;51.204;4.430;2022-08-19T08:15:32;23.84;70.90
6052;DHT22;3054;51.204;4.430;2022-08-19T08:17:59;23.91;70.97
6052;DHT22;3054;51.204;4.430;2022-08-19T08:20:26;23.97;70.95
6052;DHT22;3054;51.204;4.430;2022-08-19T08:22:55;23.95;71.08
6052;DHT22;3054;51.204;4.430;2022-08-19T08:25:39;23.96;71.13
6052;DHT22;3054;51.204;4.430;2022-08-19T08:28:06;24.05;70.94
6052;DHT22;3054;51.204;4.430;2022-08-19T08:30:34;24.04;70.93
6052;DHT22;3054;51.204;4.430;2022-08-19T08:33:02;24.14;70.86
6052;DHT22;3054;51.204;4.430;2022-08-19T08:35:29;24.19;70.96
6052;DHT22;3054;51.204;4.430;2022-08-19T08:37:57;24.35;70.64
6052;DHT22;3054;51.204;4.430;2022-08-19T08:40:29;24.41;70.52
6052;DHT22;3054;51.204;4.430;2022-08-19T08:43:03;24.44;70.58
6052;DHT22;3054;51.204;4.430;2022-08-19T08:45:35;24.50;70.49
6052;DHT22;3054;51.204;4.430;2022-08-19T08:48:13;24.56;70.48
6052;DHT22;3054;51.204;4.430;2022-08-19T08:50:43;24.56;70.55
6052;DHT22;3054;51.204;4.430;2022-08-19T08:53:16;24.44;70.74
6052;DHT22;3054;51.204;4.430;2022-08-19T08:55:44;24.26;70.98
6052;DHT22;3054;51.204;4.430;2022-08-19T08:58:15;24.15;71.31
6052;DHT22;3054;51.204;4.430;2022-08-19T09:00:47;24.08;71.58
6052;DHT22;3054;51.204;4.430;2022-08-19T09:03:17;24.09;71.77
6052;DHT22;3054;51.204;4.430;2022-08-19T09:05:56;24.10;71.72
6052;DHT22;3054;51.204;4.430;2022-08-19T09:08:33;24.06;71.76
6052;DHT22;3054;51.204;4.430;2022-08-19T09:11:07;24.09;71.74
6052;DHT22;3054;51.204;4.430;2022-08-19T09:13:42;24.05;71.87
6052;DHT22;3054;51.204;4.430;2022-08-19T09:16:14;24.05;71.81
6052;DHT22;3054;51.204;4.430;2022-08-19T09:18:43;24.09;71.87
6052;DHT22;3054;51.204;4.430;2022-08-19T09:21:11;24.16;71.81
6052;DHT22;3054;51.204;4.430;2022-08-19T09:23:40;24.16;71.80
6052;DHT22;3054;51.204;4.430;2022-08-19T09:26:10;24.17;71.81
6052;DHT22;3054;51.204;4.430;2022-08-19T09:28:39;24.14;71.94
6052;DHT22;3054;51.204;4.430;2022-08-19T09:31:09;24.12;72.05
6052;DHT22;3054;51.204;4.430;2022-08-19T09:33:35;24.04;72.23
6052;DHT22;3054;51.204;4.430;2022-08-19T09:36:05;24.06;72.38
6052;DHT22;3054;51.204;4.430;2022-08-19T09:38:32;24.14;72.25
6052;DHT22;3054;51.204;4.430;2022-08-19T09:41:04;24.16;72.16
6052;DHT22;3054;51.204;4.430;2022-08-19T09:43:31;24.20;72.13
6052;DHT22;3054;51.204;4.430;2022-08-19T09:45:58;24.27;72.09
6052;DHT22;3054;51.204;4.430;2022-08-19T09:48:26;24.35;71.92
6052;DHT22;3054;51.204;4.430;2022-08-19T09:50:53;24.40;71.78
6052;DHT22;3054;51.204;4.430;2022-08-19T09:53:19;24.43;71.68
6052;DHT22;3054;51.204;4.430;2022-08-19T09:55:48;24.46;71.63
6052;DHT22;3054;51.204;4.430;2022-08-19T09:58:17;24.49;71.74
6052;DHT22;3054;51.204;4.430;2022-08-19T10:00:44;24.54;71.72
6052;DHT22;3054;51.204;4.430;2022-08-19T10:03:11;24.51;71.76
6052;DHT22;3054;51.204;4.430;2022-08-19T10:05:39;24.56;71.77
6052;DHT22;3054;51.204;4.430;2022-08-19T10:08:16;24.61;71.73
6052;DHT22;3054;51.204;4.430;2022-08-19T10:10:43;24.65;71.61
6052;DHT22;3054;51.204;4.430;2022-08-19T10:13:11;24.66;71.58
6052;DHT22;3054;51.204;4.430;2022-08-19T10:15:40;24.61;71.65
6052;DHT22;3054;51.204;4.430;2022-08-19T10:18:07;24.55;71.70
6052;DHT22;3054;51.204;4.430;2022-08-19T10:20:34;24.47;71.75
6052;DHT22;3054;51.204;4.430;2022-08-19T10:23:03;24.55;71.74
6052;DHT22;3054;51.204;4.430;2022-08-19T10:25:31;24.72;71.51
6052;DHT22;3054;51.204;4.430;2022-08-19T10:27:59;24.76;71.28
6052;DHT22;3054;51.204;4.430;2022-08-19T10:30:26;24.70;71.35
6052;DHT22;3054;51.204;4.430;2022-08-19T10:32:55;24.64;71.59
6052;DHT22;3054;51.204;4.430;2022-08-19T10:35:22;24.66;71.68
6052;DHT22;3054;51.204;4.430;2022-08-19T10:37:52;24.65;71.69
6052;DHT22;3054;51.204;4.430;2022-08-19T10:40:19;24.72;71.67
6052;DHT22;3054;51.204;4.430;2022-08-19T10:42:45;24.76;71.61
6052;DHT22;3054;51.204;4.430;2022-08-19T10:45:12;24.76;71.61
6052;DHT22;3054;51.204;4.430;2022-08-19T10:47:39;24.75;71.61
6052;DHT22;3054;51.204;4.430;2022-08-19T10:50:08;24.74;71.63
6052;DHT22;3054;51.204;4.430;2022-08-19T10:52:52;24.77;71.59
6052;DHT22;3054;51.204;4.430;2022-08-19T10:55:21;24.71;71.74
6052;DHT22;3054;51.204;4.430;2022-08-19T10:58:11;24.72;71.87
6052;DHT22;3054;51.204;4.430;2022-08-19T11:00:38;24.78;71.68
6052;DHT22;3054;51.204;4.430;2022-08-19T11:03:05;24.82;71.66
6052;DHT22;3054;51.204;4.430;2022-08-19T11:05:34;24.92;71.38
6052;DHT22;3054;51.204;4.430;2022-08-19T11:08:03;25.00;71.19
6052;DHT22;3054;51.204;4.430;2022-08-19T11:10:30;25.15;70.80
6052;DHT22;3054;51.204;4.430;2022-08-19T11:12:57;25.27;70.52
6052;DHT22;3054;51.204;4.430;2022-08-19T11:15:26;25.32;70.45
6052;DHT22;3054;51.204;4.430;2022-08-19T11:17:54;25.36;70.19
6052;DHT22;3054;51.204;4.430;2022-08-19T11:20:21;25.35;70.16
6052;DHT22;3054;51.204;4.430;2022-08-19T11:22:52;25.36;70.23
6052;DHT22;3054;51.204;4.430;2022-08-19T11:25:19;25.43;70.03
6052;DHT22;3054;51.204;4.430;2022-08-19T11:27:46;25.51;69.83
6052;DHT22;3054;51.204;4.430;2022-08-19T11:30:16;25.60;69.57
6052;DHT22;3054;51.204;4.430;2022-08-19T11:32:43;25.67;69.44
6052;DHT22;3054;51.204;4.430;2022-08-19T11:35:10;25.90;68.93
6052;DHT22;3054;51.204;4.430;2022-08-19T11:37:37;26.05;68.34
6052;DHT22;3054;51.204;4.430;2022-08-19T11:40:07;26.11;68.19
6052;DHT22;3054;51.204;4.430;2022-08-19T11:42:34;26.19;68.03
6052;DHT22;3054;51.204;4.430;2022-08-19T11:45:18;26.27;67.59
6052;DHT22;3054;51.204;4.430;2022-08-19T11:47:45;26.37;67.18
6052;DHT22;3054;51.204;4.430;2022-08-19T11:50:12;26.47;66.86
6052;DHT22;3054;51.204;4.430;2022-08-19T11:52:39;26.52;66.79
6052;DHT22;3054;51.204;4.430;2022-08-19T11:55:08;26.49;66.76
6052;DHT22;3054;51.204;4.430;2022-08-19T11:57:35;26.52;66.74
6052;DHT22;3054;51.204;4.430;2022-08-19T12:00:04;26.56;66.70
6052;DHT22;3054;51.204;4.430;2022-08-19T12:02:32;26.57;66.62
6052;DHT22;3054;51.204;4.430;2022-08-19T12:04:59;26.53;66.53
6052;DHT22;3054;51.204;4.430;2022-08-19T12:07:27;26.50;66.47
6052;DHT22;3054;51.204;4.430;2022-08-19T12:09:54;26.54;66.35
6052;DHT22;3054;51.204;4.430;2022-08-19T12:12:23;26.58;66.08
6052;DHT22;3054;51.204;4.430;2022-08-19T12:14:52;26.71;65.83
6052;DHT22;3054;51.204;4.430;2022-08-19T12:17:22;26.83;65.53
6052;DHT22;3054;51.204;4.430;2022-08-19T12:19:51;26.92;65.18
6052;DHT22;3054;51.204;4.430;2022-08-19T12:22:18;27.10;64.57
6052;DHT22;3054;51.204;4.430;2022-08-19T12:24:47;27.29;64.01
6052;DHT22;3054;51.204;4.430;2022-08-19T12:27:16;27.54;63.44
6052;DHT22;3054;51.204;4.430;2022-08-19T12:29:44;27.80;62.77
6052;DHT22;3054;51.204;4.430;2022-08-19T12:32:11;27.94;62.26
6052;DHT22;3054;51.204;4.430;2022-08-19T12:34:39;27.90;62.15
6052;DHT22;3054;51.204;4.430;2022-08-19T12:37:06;27.93;62.02
6052;DHT22;3054;51.204;4.430;2022-08-19T12:39:35;27.76;62.24
6052;DHT22;3054;51.204;4.430;2022-08-19T12:42:02;27.65;62.55
6052;DHT22;3054;51.204;4.430;2022-08-19T12:44:29;27.61;62.62
6052;DHT22;3054;51.204;4.430;2022-08-19T12:46:59;27.55;62.75
6052;DHT22;3054;51.204;4.430;2022-08-19T12:49:28;27.51;62.75
6052;DHT22;3054;51.204;4.430;2022-08-19T12:51:54;27.46;62.66
6052;DHT22;3054;51.204;4.430;2022-08-19T12:54:23;27.39;62.69
6052;DHT22;3054;51.204;4.430;2022-08-19T12:56:50;27.36;62.70
6052;DHT22;3054;51.204;4.430;2022-08-19T12:59:17;27.27;62.79
6052;DHT22;3054;51.204;4.430;2022-08-19T13:01:45;27.21;62.92
6052;DHT22;3054;51.204;4.430;2022-08-19T13:04:14;27.26;62.85
6052;DHT22;3054;51.204;4.430;2022-08-19T13:06:41;27.29;62.74
6052;DHT22;3054;51.204;4.430;2022-08-19T13:09:09;27.38;62.53
6052;DHT22;3054;51.204;4.430;2022-08-19T13:11:37;27.44;62.37
6052;DHT22;3054;51.204;4.430;2022-08-19T13:14:04;27.45;62.27
6052;DHT22;3054;51.204;4.430;2022-08-19T13:16:31;27.42;62.24
6052;DHT22;3054;51.204;4.430;2022-08-19T13:18:58;27.39;62.33
6052;DHT22;3054;51.204;4.430;2022-08-19T13:21:29;27.34;62.41
6052;DHT22;3054;51.204;4.430;2022-08-19T13:23:57;27.32;62.43
6052;DHT22;3054;51.204;4.430;2022-08-19T13:26:24;27.30;62.47
6052;DHT22;3054;51.204;4.430;2022-08-19T13:28:51;27.29;62.41
6052;DHT22;3054;51.204;4.430;2022-08-19T13:31:38;27.49;62.03
6052;DHT22;3054;51.204;4.430;2022-08-19T13:34:28;27.71;61.61
6052;DHT22;3054;51.204;4.430;2022-08-19T13:36:57;27.89;61.18
6052;DHT22;3054;51.204;4.430;2022-08-19T13:39:24;28.00;60.98
6052;DHT22;3054;51.204;4.430;2022-08-19T13:41:51;27.95;61.02
6052;DHT22;3054;51.204;4.430;2022-08-19T13:44:19;27.89;61.02
6052;DHT22;3054;51.204;4.430;2022-08-19T13:46:46;27.80;61.10
6052;DHT22;3054;51.204;4.430;2022-08-19T13:49:14;27.71;61.18
6052;DHT22;3054;51.204;4.430;2022-08-19T13:51:41;27.76;61.00
6052;DHT22;3054;51.204;4.430;2022-08-19T13:54:10;27.84;60.86
6052;DHT22;3054;51.204;4.430;2022-08-19T13:56:40;27.80;60.85
6052;DHT22;3054;51.204;4.430;2022-08-19T13:59:07;27.82;60.65
6052;DHT22;3054;51.204;4.430;2022-08-19T14:01:34;27.88;60.47
6052;DHT22;3054;51.204;4.430;2022-08-19T14:04:01;28.02;60.21
6052;DHT22;3054;51.204;4.430;2022-08-19T14:06:29;27.96;60.30
6052;DHT22;3054;51.204;4.430;2022-08-19T14:08:55;27.85;60.52
6052;DHT22;3054;51.204;4.430;2022-08-19T14:11:24;27.79;60.69
6052;DHT22;3054;51.204;4.430;2022-08-19T14:13:51;27.72;60.90
6052;DHT22;3054;51.204;4.430;2022-08-19T14:16:17;27.79;60.81
6052;DHT22;3054;51.204;4.430;2022-08-19T14:18:44;27.87;60.57
6052;DHT22;3054;51.204;4.430;2022-08-19T14:21:15;27.94;60.34
6052;DHT22;3054;51.204;4.430;2022-08-19T14:23:43;27.94;60.18
6052;DHT22;3054;51.204;4.430;2022-08-19T14:26:14;27.98;59.98
6052;DHT22;3054;51.204;4.430;2022-08-19T14:28:43;28.02;59.75
6052;DHT22;3054;51.204;4.430;2022-08-19T14:31:11;27.98;59.77
6052;DHT22;3054;51.204;4.430;2022-08-19T14:33:38;27.84;60.02
6052;DHT22;3054;51.204;4.430;2022-08-19T14:36:06;27.67;60.33
6052;DHT22;3054;51.204;4.430;2022-08-19T14:38:33;27.51;60.57
6052;DHT22;3054;51.204;4.430;2022-08-19T14:41:10;27.32;60.89
6052;DHT22;3054;51.204;4.430;2022-08-19T14:43:38;27.20;61.29
6052;DHT22;3054;51.204;4.430;2022-08-19T14:46:07;27.09;61.89
6052;DHT22;3054;51.204;4.430;2022-08-19T14:48:35;27.01;62.41
6052;DHT22;3054;51.204;4.430;2022-08-19T14:51:04;26.85;63.20
6052;DHT22;3054;51.204;4.430;2022-08-19T14:53:32;26.67;63.92
6052;DHT22;3054;51.204;4.430;2022-08-19T14:56:00;26.54;64.50
6052;DHT22;3054;51.204;4.430;2022-08-19T14:58:27;26.41;65.09
6052;DHT22;3054;51.204;4.430;2022-08-19T15:00:54;26.33;65.83
6052;DHT22;3054;51.204;4.430;2022-08-19T15:03:23;26.23;66.49
6052;DHT22;3054;51.204;4.430;2022-08-19T15:05:51;26.18;66.89
6052;DHT22;3054;51.204;4.430;2022-08-19T15:08:19;26.12;67.35
6052;DHT22;3054;51.204;4.430;2022-08-19T15:10:46;26.10;67.76
6052;DHT22;3054;51.204;4.430;2022-08-19T15:13:13;26.09;68.12
6052;DHT22;3054;51.204;4.430;2022-08-19T15:15:40;26.08;68.30
6052;DHT22;3054;51.204;4.430;2022-08-19T15:18:07;26.12;68.47
6052;DHT22;3054;51.204;4.430;2022-08-19T15:20:37;26.15;68.48
6052;DHT22;3054;51.204;4.430;2022-08-19T15:23:04;26.13;68.75
6052;DHT22;3054;51.204;4.430;2022-08-19T15:25:31;26.19;69.00
6052;DHT22;3054;51.204;4.430;2022-08-19T15:27:59;26.26;69.10
6052;DHT22;3054;51.204;4.430;2022-08-19T15:30:27;26.33;69.32
6052;DHT22;3054;51.204;4.430;2022-08-19T15:32:55;26.42;69.40
6052;DHT22;3054;51.204;4.430;2022-08-19T15:35:22;26.46;69.68
6052;DHT22;3054;51.204;4.430;2022-08-19T15:37:52;26.52;69.78
6052;DHT22;3054;51.204;4.430;2022-08-19T15:40:21;26.56;69.83
6052;DHT22;3054;51.204;4.430;2022-08-19T15:42:48;26.54;70.10
6052;DHT22;3054;51.204;4.430;2022-08-19T15:45:17;26.52;70.22
6052;DHT22;3054;51.204;4.430;2022-08-19T15:47:44;26.54;70.19
6052;DHT22;3054;51.204;4.430;2022-08-19T15:50:13;26.54;70.34
6052;DHT22;3054;51.204;4.430;2022-08-19T15:52:45;26.58;70.23
6052;DHT22;3054;51.204;4.430;2022-08-19T15:55:13;26.54;70.39
6052;DHT22;3054;51.204;4.430;2022-08-19T15:57:41;26.57;70.37
6052;DHT22;3054;51.204;4.430;2022-08-19T16:00:25;26.57;70.27
6052;DHT22;3054;51.204;4.430;2022-08-19T16:03:13;26.57;70.27
6052;DHT22;3054;51.204;4.430;2022-08-19T16:05:57;26.58;70.37
6052;DHT22;3054;51.204;4.430;2022-08-19T16:08:41;26.54;70.59
6052;DHT22;3054;51.204;4.430;2022-08-19T16:11:11;26.47;70.90
6052;DHT22;3054;51.204;4.430;2022-08-19T16:13:38;26.35;71.35